createdAt,value
2017-09-24T00:02:08.786Z,15.17
2017-09-24T00:04:37.177Z,13.90
2017-09-24T00:07:06.609Z,15.00
2017-09-24T00:09:34.972Z,15.93
2017-09-24T00:12:04.143Z,14.10
2017-09-24T00:14:32.998Z,15.47
2017-09-24T00:17:01.400Z,16.03
2017-09-24T00:19:30.533Z,14.63
2017-09-24T00:21:59.355Z,17.07
2017-09-24T00:24:27.720Z,15.60
2017-09-24T00:26:56.126Z,14.87
2017-09-24T00:29:24.823Z,17.50
2017-09-24T00:31:53.196Z,16.10
2017-09-24T00:34:21.646Z,15.63
2017-09-24T00:36:50.301Z,17.27
2017-09-24T00:39:18.647Z,15.57
2017-09-24T00:41:47.300Z,16.50
2017-09-24T00:44:17.212Z,15.40
2017-09-24T00:46:46.341Z,16.80
2017-09-24T00:49:14.708Z,16.80
2017-09-24T00:51:45.040Z,17.57
2017-09-24T00:54:13.770Z,18.80
2017-09-24T00:56:42.161Z,18.07
2017-09-24T00:59:11.229Z,17.50
2017-09-24T01:01:39.588Z,18.47
2017-09-24T01:04:07.945Z,19.00
2017-09-24T01:06:37.590Z,19.03
2017-09-24T01:09:05.942Z,19.37
2017-09-24T01:11:35.046Z,20.43
2017-09-24T01:14:03.779Z,20.80
2017-09-24T01:16:32.168Z,22.00
2017-09-24T01:19:00.546Z,21.50
2017-09-24T01:21:29.166Z,22.73
2017-09-24T01:23:58.305Z,21.60
2017-09-24T01:26:26.685Z,22.00
2017-09-24T01:28:56.296Z,23.30
2017-09-24T01:31:25.068Z,24.20
2017-09-24T01:33:53.446Z,24.37
2017-09-24T01:36:22.230Z,23.90
2017-09-24T01:38:51.396Z,23.17
2017-09-24T01:41:21.320Z,22.70
2017-09-24T01:43:50.905Z,23.33
2017-09-24T01:46:19.256Z,24.30
2017-09-24T01:48:47.626Z,24.17
2017-09-24T01:51:16.591Z,23.83
2017-09-24T01:53:44.936Z,24.83
2017-09-24T01:56:13.281Z,24.90
2017-09-24T01:58:42.033Z,23.80
2017-09-24T02:01:10.530Z,24.30
2017-09-24T02:03:39.723Z,24.90
2017-09-24T02:06:08.373Z,27.37
2017-09-24T02:08:37.531Z,24.20
2017-09-24T02:11:05.930Z,24.03
2017-09-24T02:13:35.874Z,25.50
2017-09-24T02:16:05.413Z,25.63
2017-09-24T02:18:33.749Z,25.40
2017-09-24T02:21:03.313Z,27.10
2017-09-24T02:23:31.674Z,28.37
2017-09-24T02:26:00.061Z,27.63
2017-09-24T02:28:28.954Z,27.20
2017-09-24T02:30:57.351Z,27.77
2017-09-24T02:33:25.718Z,27.90
2017-09-24T02:35:54.789Z,28.73
2017-09-24T02:38:23.260Z,29.27
2017-09-24T02:40:51.619Z,30.03
2017-09-24T02:43:20.263Z,28.63
2017-09-24T02:45:49.407Z,29.60
2017-09-24T02:48:18.545Z,32.00
2017-09-24T02:50:47.190Z,31.43
2017-09-24T02:53:16.300Z,31.73
2017-09-24T02:55:45.396Z,31.90
2017-09-24T02:58:15.166Z,32.80
2017-09-24T03:00:43.502Z,31.73
2017-09-24T03:03:13.977Z,32.60
2017-09-24T03:05:42.721Z,31.93
2017-09-24T03:08:11.117Z,31.83
2017-09-24T03:10:40.127Z,34.13
2017-09-24T03:13:09.004Z,32.80
2017-09-24T03:15:37.340Z,34.67
2017-09-24T03:18:06.462Z,33.00
2017-09-24T03:20:35.285Z,34.17
2017-09-24T03:23:03.750Z,36.20
2017-09-24T03:25:32.559Z,36.27
2017-09-24T03:28:02.124Z,37.67
2017-09-24T03:30:30.482Z,39.00
2017-09-24T03:32:58.889Z,33.77
2017-09-24T03:35:27.543Z,35.87
2017-09-24T03:37:55.916Z,35.80
2017-09-24T03:40:25.048Z,35.53
2017-09-24T03:42:53.925Z,36.20
2017-09-24T03:45:22.289Z,37.57
2017-09-24T03:47:51.225Z,37.13
2017-09-24T03:50:19.885Z,37.50
2017-09-24T03:52:49.273Z,38.30
2017-09-24T03:55:18.444Z,37.67
2017-09-24T03:57:47.965Z,37.77
2017-09-24T04:00:16.323Z,37.47
2017-09-24T04:02:45.521Z,37.73
2017-09-24T04:05:14.541Z,35.73
2017-09-24T04:07:43.741Z,37.80
2017-09-24T04:10:12.849Z,37.43
2017-09-24T04:12:42.236Z,37.73
2017-09-24T04:15:11.522Z,38.70
2017-09-24T04:17:39.910Z,40.77
2017-09-24T04:20:09.186Z,40.03
2017-09-24T04:22:37.597Z,39.10
2017-09-24T04:25:06.258Z,39.93
2017-09-24T04:27:35.414Z,41.27
2017-09-24T04:30:04.190Z,40.17
2017-09-24T04:32:33.356Z,40.70
2017-09-24T04:35:02.121Z,40.33
2017-09-24T04:37:30.506Z,41.37
2017-09-24T04:39:58.891Z,40.53
2017-09-24T04:42:28.520Z,39.40
2017-09-24T04:44:57.659Z,40.67
2017-09-24T04:47:26.081Z,40.00
2017-09-24T04:49:55.429Z,40.20
2017-09-24T04:52:24.605Z,40.60
2017-09-24T04:54:53.269Z,37.93
2017-09-24T04:57:22.856Z,40.63
2017-09-24T04:59:51.234Z,38.00
2017-09-24T05:02:19.647Z,39.13
2017-09-24T05:04:48.524Z,39.00
2017-09-24T05:07:16.878Z,38.63
2017-09-24T05:09:45.430Z,37.63
2017-09-24T05:12:14.235Z,38.80
2017-09-24T05:14:42.577Z,38.43
2017-09-24T05:17:11.734Z,40.87
2017-09-24T05:19:40.588Z,42.07
2017-09-24T05:22:08.941Z,39.20
2017-09-24T05:24:37.294Z,39.23
2017-09-24T05:27:06.062Z,39.03
2017-09-24T05:29:34.438Z,37.50
2017-09-24T05:32:02.801Z,39.43
2017-09-24T05:34:32.094Z,38.00
2017-09-24T05:37:00.454Z,36.33
2017-09-24T05:39:29.588Z,39.73
2017-09-24T05:41:58.240Z,37.30
2017-09-24T05:44:27.367Z,38.20
2017-09-24T05:46:55.705Z,37.17
2017-09-24T05:49:25.279Z,36.73
2017-09-24T05:51:53.651Z,36.40
2017-09-24T05:54:22.004Z,36.27
2017-09-24T05:56:50.844Z,35.10
2017-09-24T05:59:19.249Z,35.93
2017-09-24T06:01:49.128Z,32.90
2017-09-24T06:04:18.014Z,33.90
2017-09-24T06:06:46.402Z,32.90
2017-09-24T06:09:14.751Z,32.60
2017-09-24T06:11:43.633Z,33.07
2017-09-24T06:14:12.001Z,33.23
2017-09-24T06:16:40.352Z,32.47
2017-09-24T06:19:10.330Z,31.47
2017-09-24T06:21:38.705Z,29.80
2017-09-24T06:24:07.052Z,30.50
2017-09-24T06:26:36.493Z,27.27
2017-09-24T06:29:04.871Z,25.83
2017-09-24T06:31:33.858Z,25.90
2017-09-24T06:34:02.618Z,24.87
2017-09-24T06:36:31.338Z,26.43
2017-09-24T06:38:59.703Z,25.70
2017-09-24T06:41:28.670Z,24.07
2017-09-24T06:43:57.030Z,24.20
2017-09-24T06:46:26.170Z,23.83
2017-09-24T06:48:54.807Z,23.10
2017-09-24T06:51:23.957Z,20.70
2017-09-24T06:53:53.117Z,22.97
2017-09-24T06:56:21.948Z,22.00
2017-09-24T06:58:51.017Z,21.20
2017-09-24T07:01:20.191Z,20.67
2017-09-24T07:03:49.722Z,21.70
2017-09-24T07:06:18.069Z,21.03
2017-09-24T07:08:47.228Z,21.90
2017-09-24T07:11:16.014Z,21.70
2017-09-24T07:13:44.389Z,21.50
2017-09-24T07:16:12.742Z,22.43
2017-09-24T07:18:41.582Z,23.40
2017-09-24T07:21:09.944Z,21.67
2017-09-24T07:23:38.307Z,22.83
2017-09-24T07:26:07.518Z,23.27
2017-09-24T07:28:35.881Z,22.43
2017-09-24T07:31:04.261Z,23.17
2017-09-24T07:33:33.137Z,22.80
2017-09-24T07:36:01.500Z,26.53
2017-09-24T07:38:29.910Z,23.40
2017-09-24T07:40:58.569Z,24.50
2017-09-24T07:43:27.211Z,25.90
2017-09-24T07:45:55.551Z,24.30
2017-09-24T07:48:24.641Z,22.83
2017-09-24T07:50:52.993Z,24.00
2017-09-24T07:53:22.659Z,24.03
2017-09-24T07:55:51.646Z,23.57
2017-09-24T07:58:19.992Z,23.27
2017-09-24T08:00:50.314Z,23.80
2017-09-24T08:03:20.027Z,23.70
2017-09-24T08:05:48.431Z,23.17
2017-09-24T08:08:16.805Z,24.30
2017-09-24T08:10:45.877Z,23.63
2017-09-24T08:13:15.020Z,24.33
2017-09-24T08:15:43.949Z,22.80
2017-09-24T08:18:12.602Z,23.33
2017-09-24T08:20:41.034Z,24.47
2017-09-24T08:23:10.362Z,24.00
2017-09-24T08:25:39.368Z,23.20
2017-09-24T08:28:07.734Z,25.13
2017-09-24T08:30:36.132Z,23.60
2017-09-24T08:33:05.106Z,24.40
2017-09-24T08:35:33.450Z,24.10
2017-09-24T08:38:01.799Z,23.33
2017-09-24T08:40:30.745Z,23.07
2017-09-24T08:42:59.249Z,23.97
2017-09-24T08:45:28.315Z,23.93
2017-09-24T08:47:56.982Z,23.73
2017-09-24T08:50:25.425Z,23.30
2017-09-24T08:52:54.591Z,23.40
2017-09-24T08:55:23.632Z,24.47
2017-09-24T08:57:52.071Z,23.50
2017-09-24T09:00:20.731Z,23.27
2017-09-24T09:02:50.156Z,20.90
2017-09-24T09:05:18.538Z,22.33
2017-09-24T09:07:46.920Z,23.30
2017-09-24T09:10:16.843Z,23.40
2017-09-24T09:12:45.759Z,22.63
2017-09-24T09:15:16.689Z,20.93
2017-09-24T09:17:45.856Z,22.77
2017-09-24T09:20:15.151Z,21.33
2017-09-24T09:22:44.280Z,22.10
2017-09-24T09:25:13.269Z,22.37
2017-09-24T09:27:41.660Z,23.30
2017-09-24T09:30:10.057Z,21.80
2017-09-24T09:32:44.443Z,23.23
2017-09-24T09:35:15.245Z,21.30
2017-09-24T09:37:43.629Z,22.20
2017-09-24T09:40:12.454Z,20.10
2017-09-24T09:42:40.867Z,20.50
2017-09-24T09:45:27.311Z,20.93
2017-09-24T09:47:56.825Z,20.37
2017-09-24T09:50:26.609Z,21.83
2017-09-24T09:52:55.230Z,21.37
2017-09-24T09:55:24.279Z,22.67
2017-09-24T09:57:52.685Z,20.90
2017-09-24T10:00:22.699Z,22.30
2017-09-24T10:02:51.837Z,22.70
2017-09-24T10:05:20.213Z,24.47
2017-09-24T10:08:06.525Z,23.70
2017-09-24T10:10:35.840Z,23.47
2017-09-24T10:13:04.195Z,23.53
2017-09-24T10:15:33.472Z,23.20
2017-09-24T10:18:02.612Z,22.93
2017-09-24T10:20:30.980Z,21.80
2017-09-24T10:22:59.678Z,22.97
2017-09-24T10:25:28.409Z,23.00
2017-09-24T10:27:57.459Z,22.17
2017-09-24T10:30:44.466Z,23.10
2017-09-24T10:33:14.302Z,22.90
2017-09-24T10:35:42.914Z,23.67
2017-09-24T10:38:12.335Z,22.63
2017-09-24T10:40:41.479Z,23.60
2017-09-24T10:43:09.843Z,24.40
2017-09-24T10:45:39.428Z,23.03
2017-09-24T10:48:07.777Z,24.47
2017-09-24T10:50:37.260Z,24.03
2017-09-24T10:53:06.537Z,23.03
2017-09-24T10:55:34.887Z,23.07
2017-09-24T10:58:03.260Z,25.83
2017-09-24T11:00:33.899Z,26.03
2017-09-24T11:03:02.290Z,24.20
2017-09-24T11:05:31.487Z,25.17
2017-09-24T11:08:00.280Z,24.00
2017-09-24T11:10:28.664Z,23.67
2017-09-24T11:12:57.040Z,25.53
2017-09-24T11:15:26.269Z,22.70
2017-09-24T11:17:54.736Z,23.00
2017-09-24T11:20:23.094Z,24.27
2017-09-24T11:22:51.735Z,23.80
2017-09-24T11:25:20.096Z,22.80
2017-09-24T11:27:49.740Z,22.97
2017-09-24T11:30:18.642Z,22.93
2017-09-24T11:32:47.031Z,21.90
2017-09-24T11:35:15.424Z,19.60
2017-09-24T11:37:44.304Z,21.20
2017-09-24T11:40:12.666Z,19.50
2017-09-24T11:42:41.137Z,19.30
2017-09-24T11:45:11.125Z,18.67
2017-09-24T11:47:40.358Z,20.10
2017-09-24T11:50:09.554Z,20.80
2017-09-24T11:52:39.137Z,20.67
2017-09-24T11:55:07.495Z,19.80
2017-09-24T11:57:36.451Z,20.67
2017-09-24T12:00:05.271Z,21.50
2017-09-24T12:02:33.663Z,18.80
2017-09-24T12:05:02.266Z,18.27
2017-09-24T12:07:31.141Z,18.10
2017-09-24T12:09:59.501Z,17.30
2017-09-24T12:12:28.803Z,16.10
2017-09-24T12:14:57.578Z,16.27
2017-09-24T12:17:25.945Z,15.30
2017-09-24T12:19:54.642Z,14.43
2017-09-24T12:22:23.754Z,15.10
2017-09-24T12:24:52.119Z,15.53
2017-09-24T12:27:20.505Z,15.43
2017-09-24T12:29:49.390Z,15.50
2017-09-24T12:32:17.733Z,15.83
2017-09-24T12:34:46.919Z,15.70
2017-09-24T12:37:16.257Z,15.77
2017-09-24T12:39:45.703Z,13.17
2017-09-24T12:42:14.088Z,14.70
2017-09-24T12:44:43.559Z,14.93
2017-09-24T12:47:11.958Z,14.57
2017-09-24T12:49:40.333Z,14.57
2017-09-24T12:52:08.998Z,13.43
2017-09-24T12:54:37.368Z,14.60
2017-09-24T12:57:05.719Z,14.10
2017-09-24T12:59:36.029Z,14.50
2017-09-24T13:02:05.148Z,13.37
2017-09-24T13:04:33.707Z,14.37
2017-09-24T13:07:02.762Z,14.57
2017-09-24T13:09:31.837Z,15.80
2017-09-24T13:12:00.201Z,15.90
2017-09-24T13:14:29.614Z,17.40
2017-09-24T13:16:57.974Z,15.90
2017-09-24T13:19:26.438Z,15.50
2017-09-24T13:21:55.283Z,15.73
2017-09-24T13:24:24.783Z,14.90
2017-09-24T13:26:53.138Z,15.90
2017-09-24T13:29:23.825Z,16.17
2017-09-24T13:31:52.161Z,16.10
2017-09-24T13:34:21.287Z,17.13
2017-09-24T13:36:50.870Z,17.77
2017-09-24T13:39:20.009Z,16.93
2017-09-24T13:41:48.393Z,18.30
2017-09-24T13:44:17.063Z,18.30
2017-09-24T13:46:45.410Z,17.80
2017-09-24T13:49:13.780Z,18.97
2017-09-24T13:51:43.479Z,18.20
2017-09-24T13:54:12.641Z,18.10
2017-09-24T13:56:41.015Z,17.03
2017-09-24T13:59:09.654Z,18.23
2017-09-24T14:01:38.084Z,19.60
2017-09-24T14:04:06.430Z,18.00
2017-09-24T14:06:35.959Z,19.10
2017-09-24T14:09:04.328Z,20.30
2017-09-24T14:11:33.437Z,21.63
2017-09-24T14:14:02.398Z,20.23
2017-09-24T14:16:30.803Z,19.50
2017-09-24T14:18:59.617Z,20.93
2017-09-24T14:21:28.298Z,21.63
2017-09-24T14:23:57.526Z,20.73
2017-09-24T14:26:25.931Z,22.23
2017-09-24T14:28:54.680Z,21.57
2017-09-24T14:31:23.546Z,19.20
2017-09-24T14:33:51.936Z,19.27
2017-09-24T14:36:21.436Z,19.30
2017-09-24T14:38:49.808Z,18.50
2017-09-24T14:41:18.197Z,17.60
2017-09-24T14:43:46.886Z,18.20
2017-09-24T14:46:15.272Z,19.20
2017-09-24T14:48:43.656Z,19.53
2017-09-24T14:51:13.068Z,18.50
2017-09-24T14:53:41.418Z,18.77
2017-09-24T14:56:09.798Z,18.10
2017-09-24T14:58:38.520Z,18.60
2017-09-24T15:01:06.891Z,18.27
2017-09-24T15:03:35.979Z,19.93
2017-09-24T15:06:05.080Z,20.23
2017-09-24T15:08:33.462Z,21.17
2017-09-24T15:11:02.794Z,22.20
2017-09-24T15:13:32.197Z,22.23
2017-09-24T15:16:02.186Z,23.37
2017-09-24T15:18:30.556Z,23.90
2017-09-24T15:21:00.220Z,23.53
2017-09-24T15:23:28.598Z,24.53
2017-09-24T15:25:56.979Z,23.47
2017-09-24T15:28:25.677Z,24.07
2017-09-24T15:30:54.090Z,25.87
2017-09-24T15:33:22.458Z,25.60
2017-09-24T15:35:51.095Z,25.03
2017-09-24T15:38:20.475Z,27.50
2017-09-24T15:40:49.731Z,25.87
2017-09-24T15:43:18.741Z,25.90
2017-09-24T15:45:47.090Z,24.77
2017-09-24T15:48:15.513Z,24.87
2017-09-24T15:50:44.266Z,26.50
2017-09-24T15:53:12.611Z,27.03
2017-09-24T15:55:40.993Z,26.73
2017-09-24T15:58:10.415Z,27.40
2017-09-24T16:00:39.026Z,25.40
2017-09-24T16:03:07.389Z,26.73
2017-09-24T16:05:37.026Z,26.40
2017-09-24T16:08:05.402Z,27.70
2017-09-24T16:10:34.475Z,27.37
2017-09-24T16:13:03.201Z,26.70
2017-09-24T16:15:32.240Z,25.90
2017-09-24T16:18:00.596Z,26.93
2017-09-24T16:20:29.302Z,27.17
2017-09-24T16:22:58.443Z,23.50
2017-09-24T16:25:27.048Z,23.83
2017-09-24T16:27:56.011Z,25.60
2017-09-24T16:30:24.446Z,24.27
2017-09-24T16:32:54.197Z,23.53
2017-09-24T16:35:23.067Z,24.40
2017-09-24T16:37:51.442Z,23.73
2017-09-24T16:40:21.581Z,25.70
2017-09-24T16:42:50.230Z,25.83
2017-09-24T16:45:19.347Z,25.20
2017-09-24T16:47:47.703Z,28.33
2017-09-24T16:50:17.466Z,24.60
2017-09-24T16:52:45.891Z,27.00
2017-09-24T16:55:14.274Z,27.50
2017-09-24T16:57:44.386Z,27.57
2017-09-24T17:00:13.514Z,27.90
2017-09-24T17:02:41.863Z,29.03
2017-09-24T17:05:10.693Z,26.77
2017-09-24T17:07:39.053Z,27.10
2017-09-24T17:10:07.425Z,29.10
2017-09-24T17:12:37.065Z,28.17
2017-09-24T17:15:05.444Z,28.53
2017-09-24T17:17:33.823Z,29.30
2017-09-24T17:20:02.533Z,28.13
2017-09-24T17:22:30.983Z,30.10
2017-09-24T17:24:59.369Z,30.87
2017-09-24T17:27:28.054Z,28.93
2017-09-24T17:29:56.502Z,30.60
2017-09-24T17:32:25.653Z,29.93
2017-09-24T17:34:54.658Z,29.93
2017-09-24T17:37:23.068Z,30.00
2017-09-24T17:39:52.202Z,29.80
2017-09-24T17:42:21.062Z,31.70
2017-09-24T17:44:49.470Z,30.63
2017-09-24T17:47:18.064Z,31.27
2017-09-24T17:49:46.804Z,31.70
2017-09-24T17:52:15.188Z,31.23
2017-09-24T17:54:43.596Z,30.97
2017-09-24T17:57:13.682Z,33.07
2017-09-24T17:59:43.637Z,30.30
2017-09-24T18:02:12.024Z,31.30
2017-09-24T18:04:40.725Z,32.83
2017-09-24T18:07:09.096Z,32.90
2017-09-24T18:09:37.462Z,32.13
2017-09-24T18:12:06.187Z,33.10
2017-09-24T18:14:35.264Z,32.77
2017-09-24T18:17:03.639Z,38.10
2017-09-24T18:19:33.622Z,32.57
2017-09-24T18:22:02.018Z,33.50
2017-09-24T18:24:30.367Z,33.97
2017-09-24T18:26:59.100Z,33.60
2017-09-24T18:29:27.483Z,30.70
2017-09-24T18:31:55.924Z,33.70
2017-09-24T18:34:25.552Z,31.60
2017-09-24T18:36:53.931Z,33.90
2017-09-24T18:39:22.279Z,34.40
2017-09-24T18:41:51.864Z,33.67
2017-09-24T18:44:20.248Z,30.30
2017-09-24T18:46:48.663Z,30.47
2017-09-24T18:49:17.332Z,30.63
2017-09-24T18:51:45.680Z,32.07
2017-09-24T18:54:14.147Z,31.50
2017-09-24T18:56:43.683Z,31.50
2017-09-24T18:59:13.052Z,32.40
2017-09-24T19:01:41.428Z,30.17
2017-09-24T19:04:10.405Z,29.80
2017-09-24T19:06:38.833Z,30.27
2017-09-24T19:09:07.211Z,31.90
2017-09-24T19:11:35.995Z,30.43
2017-09-24T19:14:05.101Z,33.77
2017-09-24T19:16:33.525Z,33.10
2017-09-24T19:19:02.232Z,33.90
2017-09-24T19:21:30.595Z,33.53
2017-09-24T19:23:59.368Z,33.80
2017-09-24T19:26:29.039Z,33.37
2017-09-24T19:28:57.425Z,32.43
2017-09-24T19:31:25.782Z,32.57
2017-09-24T19:33:54.463Z,34.57
2017-09-24T19:36:22.844Z,34.90
2017-09-24T19:38:51.238Z,33.70
2017-09-24T19:41:20.713Z,32.60
2017-09-24T19:43:49.114Z,34.70
2017-09-24T19:46:17.465Z,33.67
2017-09-24T19:48:46.349Z,34.00
2017-09-24T19:51:14.702Z,32.70
2017-09-24T19:53:43.823Z,32.63
2017-09-24T19:56:12.585Z,32.73
2017-09-24T19:58:41.169Z,34.07
2017-09-24T20:01:10.318Z,31.33
2017-09-24T20:03:39.100Z,33.20
2017-09-24T20:06:08.536Z,31.00
2017-09-24T20:08:36.910Z,33.70
2017-09-24T20:11:05.714Z,32.30
2017-09-24T20:13:34.832Z,32.97
2017-09-24T20:16:03.202Z,32.50
2017-09-24T20:18:33.498Z,32.83
2017-09-24T20:21:01.919Z,31.23
2017-09-24T20:23:30.532Z,31.00
2017-09-24T20:25:59.318Z,32.67
2017-09-24T20:28:27.656Z,32.20
2017-09-24T20:30:56.056Z,34.70
2017-09-24T20:33:26.097Z,29.30
2017-09-24T20:35:54.463Z,32.20
2017-09-24T20:38:22.798Z,32.10
2017-09-24T20:40:51.729Z,33.17
2017-09-24T20:43:20.105Z,32.27
2017-09-24T20:45:48.978Z,30.00
2017-09-24T20:48:17.727Z,31.43
2017-09-24T20:50:46.067Z,31.77
2017-09-24T20:53:14.451Z,32.23
2017-09-24T20:55:43.389Z,33.73
2017-09-24T20:58:12.059Z,30.37
2017-09-24T21:00:40.447Z,30.40
2017-09-24T21:03:09.590Z,29.67
2017-09-24T21:05:38.698Z,31.80
2017-09-24T21:08:08.429Z,29.70
2017-09-24T21:10:37.186Z,30.17
2017-09-24T21:13:06.781Z,30.30
2017-09-24T21:15:35.268Z,31.63
2017-09-24T21:18:04.938Z,34.00
2017-09-24T21:20:33.273Z,30.07
2017-09-24T21:23:02.406Z,28.67
2017-09-24T21:25:31.106Z,27.87
2017-09-24T21:27:59.473Z,27.87
2017-09-24T21:30:27.876Z,29.33
2017-09-24T21:32:56.809Z,27.20
2017-09-24T21:35:25.218Z,28.53
2017-09-24T21:37:53.607Z,28.27
2017-09-24T21:40:23.466Z,27.13
2017-09-24T21:42:52.609Z,26.97
2017-09-24T21:45:21.222Z,27.30
2017-09-24T21:47:49.859Z,28.10
2017-09-24T21:50:18.354Z,28.47
2017-09-24T21:52:46.701Z,30.33
2017-09-24T21:55:16.123Z,29.20
2017-09-24T21:57:44.494Z,31.03
2017-09-24T22:00:12.878Z,29.73
2017-09-24T22:02:41.958Z,29.40
2017-09-24T22:05:11.063Z,28.80
2017-09-24T22:07:39.439Z,27.47
2017-09-24T22:10:08.227Z,27.50
2017-09-24T22:12:36.611Z,28.97
2017-09-24T22:15:04.993Z,28.70
2017-09-24T22:17:33.905Z,28.63
2017-09-24T22:20:02.274Z,27.57
2017-09-24T22:22:30.655Z,29.00
2017-09-24T22:24:59.555Z,27.20
2017-09-24T22:27:27.917Z,29.10
2017-09-24T22:29:56.283Z,28.27
2017-09-24T22:32:26.015Z,27.73
2017-09-24T22:34:54.382Z,26.80
2017-09-24T22:37:22.751Z,28.80
2017-09-24T22:39:51.634Z,28.03
2017-09-24T22:42:20.414Z,27.53
2017-09-24T22:44:50.689Z,29.20
2017-09-24T22:47:19.452Z,26.70
2017-09-24T22:49:47.807Z,28.33
2017-09-24T22:52:16.149Z,27.60
2017-09-24T22:54:44.882Z,27.73
2017-09-24T22:57:13.999Z,27.90
2017-09-24T22:59:42.370Z,29.13
2017-09-24T23:02:11.262Z,28.30
2017-09-24T23:04:40.401Z,29.60
2017-09-24T23:07:09.535Z,27.57
2017-09-24T23:09:40.071Z,28.90
2017-09-24T23:12:09.887Z,27.93
2017-09-24T23:14:38.288Z,28.90
2017-09-24T23:17:06.910Z,28.03
2017-09-24T23:19:35.302Z,29.20
2017-09-24T23:22:03.661Z,28.33
2017-09-24T23:24:32.306Z,30.60
2017-09-24T23:27:01.243Z,29.60
2017-09-24T23:29:29.857Z,29.67
2017-09-24T23:31:58.621Z,28.47
2017-09-24T23:34:26.993Z,27.83
2017-09-24T23:36:55.366Z,29.80
2017-09-24T23:39:24.240Z,32.00
2017-09-24T23:41:52.617Z,31.57
2017-09-24T23:44:20.979Z,32.20
2017-09-24T23:46:50.036Z,30.30
2017-09-24T23:49:19.310Z,30.80
2017-09-24T23:51:47.661Z,30.33
2017-09-24T23:54:17.378Z,31.87
2017-09-24T23:56:45.733Z,32.07
2017-09-24T23:59:15.070Z,32.03
